createdAt,value
2023-03-24T00:03:20.192Z,8.68
2023-03-24T00:07:20.988Z,8.60
2023-03-24T00:11:20.412Z,9.48
2023-03-24T00:15:20.467Z,9.56
2023-03-24T00:19:20.539Z,9.47
2023-03-24T00:23:20.507Z,10.55
2023-03-24T00:27:20.901Z,9.99
2023-03-24T00:31:20.788Z,9.01
2023-03-24T00:35:20.892Z,11.58
2023-03-24T00:39:21.112Z,11.54
2023-03-24T00:43:21.539Z,9.11
2023-03-24T00:47:21.481Z,8.83
2023-03-24T00:51:21.665Z,20.20
2023-03-24T00:55:21.731Z,14.93
2023-03-24T00:59:22.533Z,9.01
2023-03-24T01:03:22.022Z,10.03
2023-03-24T01:07:22.142Z,9.22
2023-03-24T01:11:22.228Z,12.44
2023-03-24T01:15:22.299Z,17.42
2023-03-24T01:19:22.570Z,16.27
2023-03-24T01:23:22.455Z,15.29
2023-03-24T01:27:22.709Z,15.04
2023-03-24T01:31:22.710Z,19.54
2023-03-24T01:35:22.984Z,18.05
2023-03-24T01:39:22.881Z,14.45
2023-03-24T01:43:23.137Z,13.66
2023-03-24T01:47:23.308Z,14.18
2023-03-24T01:51:23.401Z,14.12
2023-03-24T01:55:23.372Z,14.34
2023-03-24T01:59:23.334Z,14.06
2023-03-24T02:03:23.322Z,14.60
2023-03-24T02:07:23.338Z,14.57
2023-03-24T02:11:23.244Z,13.72
2023-03-24T02:15:23.245Z,13.05
2023-03-24T02:19:24.700Z,13.92
2023-03-24T02:23:23.170Z,13.22
2023-03-24T02:27:23.179Z,14.13
2023-03-24T02:31:23.332Z,15.52
2023-03-24T02:35:23.379Z,15.25
2023-03-24T02:39:23.450Z,16.58
2023-03-24T02:43:23.535Z,15.00
2023-03-24T02:47:23.621Z,15.45
2023-03-24T02:51:23.801Z,15.84
2023-03-24T02:55:23.906Z,16.88
2023-03-24T02:59:24.163Z,17.31
2023-03-24T03:03:25.038Z,15.46
2023-03-24T03:07:24.285Z,14.35
2023-03-24T03:11:24.469Z,14.97
2023-03-24T03:15:24.638Z,15.16
2023-03-24T03:19:25.333Z,15.77
2023-03-24T03:23:25.113Z,14.27
2023-03-24T03:27:25.069Z,14.17
2023-03-24T03:31:25.146Z,14.22
2023-03-24T03:35:25.271Z,14.31
2023-03-24T03:39:25.516Z,15.64
2023-03-24T03:43:25.497Z,14.34
2023-03-24T03:47:25.695Z,14.37
2023-03-24T03:51:25.736Z,15.55
2023-03-24T03:55:25.921Z,14.95
2023-03-24T03:59:25.994Z,14.95
2023-03-24T04:03:26.142Z,16.60
2023-03-24T04:07:27.150Z,16.29
2023-03-24T04:11:26.417Z,18.04
2023-03-24T04:15:26.475Z,16.41
2023-03-24T04:19:26.653Z,16.75
2023-03-24T04:23:26.890Z,18.09
2023-03-24T04:27:27.099Z,15.83
2023-03-24T04:31:27.311Z,14.86
2023-03-24T04:35:27.307Z,16.64
2023-03-24T04:39:27.333Z,15.12
2023-03-24T04:43:27.352Z,16.03
2023-03-24T04:47:27.541Z,15.00
2023-03-24T04:51:27.599Z,15.88
2023-03-24T04:55:27.745Z,14.09
2023-03-24T04:59:27.820Z,14.56
2023-03-24T05:03:27.830Z,15.42
2023-03-24T05:07:27.958Z,16.00
2023-03-24T05:11:27.978Z,16.21
2023-03-24T05:15:28.113Z,15.03
2023-03-24T05:19:28.228Z,15.39
2023-03-24T05:23:28.342Z,16.11
2023-03-24T05:27:28.561Z,15.26
2023-03-24T05:31:28.725Z,15.66
2023-03-24T05:35:28.689Z,14.57
2023-03-24T05:39:28.865Z,14.69
2023-03-24T05:43:29.060Z,13.98
2023-03-24T05:47:29.171Z,14.91
2023-03-24T05:51:29.217Z,15.74
2023-03-24T05:55:30.632Z,15.83
2023-03-24T05:59:29.685Z,15.97
2023-03-24T06:03:30.024Z,15.51
2023-03-24T06:07:29.817Z,14.57
2023-03-24T06:11:29.857Z,14.04
2023-03-24T06:15:30.130Z,14.04
2023-03-24T06:19:30.147Z,15.91
2023-03-24T06:23:30.285Z,16.46
2023-03-24T06:27:30.368Z,16.46
2023-03-24T06:31:30.559Z,16.12
2023-03-24T06:35:30.879Z,16.22
2023-03-24T06:39:30.926Z,14.21
2023-03-24T06:43:31.639Z,16.08
2023-03-24T06:47:31.190Z,15.18
2023-03-24T06:51:32.170Z,13.56
2023-03-24T06:55:31.554Z,13.96
2023-03-24T06:59:32.950Z,14.68
2023-03-24T07:03:32.234Z,13.20
2023-03-24T07:08:08.290Z,15.15
2023-03-24T07:11:33.173Z,15.51
2023-03-24T07:15:34.547Z,14.62
2023-03-24T07:19:31.732Z,15.01
2023-03-24T07:23:31.762Z,13.04
2023-03-24T07:27:31.783Z,14.09
2023-03-24T07:31:31.782Z,14.73
2023-03-24T07:35:32.121Z,13.37
2023-03-24T07:39:34.573Z,14.22
2023-03-24T07:43:31.868Z,13.66
2023-03-24T07:47:31.567Z,13.90
2023-03-24T07:51:33.880Z,14.11
2023-03-24T07:55:31.643Z,14.71
2023-03-24T07:59:31.750Z,13.39
2023-03-24T08:03:32.088Z,13.87
2023-03-24T08:07:31.752Z,14.19
2023-03-24T08:11:31.840Z,13.42
2023-03-24T08:15:32.018Z,13.83
2023-03-24T08:19:32.248Z,14.04
2023-03-24T08:23:32.224Z,13.95
2023-03-24T08:27:32.578Z,13.39
2023-03-24T08:31:32.659Z,13.34
2023-03-24T08:35:33.817Z,12.51
2023-03-24T08:39:32.582Z,13.82
2023-03-24T08:43:33.376Z,13.73
2023-03-24T08:51:36.200Z,12.91
2023-03-24T08:55:35.833Z,12.93
2023-03-24T08:59:36.732Z,11.30
2023-03-24T09:03:35.811Z,13.57
2023-03-24T09:07:36.670Z,11.17
2023-03-24T09:11:39.445Z,13.17
2023-03-24T09:15:35.730Z,12.52
2023-03-24T09:19:35.774Z,12.71
2023-03-24T09:23:35.911Z,12.53
2023-03-24T09:27:35.943Z,12.69
2023-03-24T09:31:35.735Z,12.51
2023-03-24T09:35:35.623Z,12.55
2023-03-24T09:39:36.088Z,13.14
2023-03-24T09:43:36.241Z,13.05
2023-03-24T09:47:35.648Z,13.39
2023-03-24T09:51:36.093Z,13.84
2023-03-24T09:55:35.573Z,15.45
2023-03-24T09:59:35.527Z,13.72
2023-03-24T10:03:36.433Z,14.51
2023-03-24T10:07:36.084Z,14.14
2023-03-24T10:11:36.006Z,13.56
2023-03-24T10:15:38.128Z,13.21
2023-03-24T10:19:36.533Z,12.67
2023-03-24T10:23:36.715Z,14.23
2023-03-24T10:27:36.666Z,13.60
2023-03-24T10:31:37.362Z,14.39
2023-03-24T10:35:37.455Z,13.76
2023-03-24T10:39:44.746Z,14.92
2023-03-24T10:43:38.246Z,14.90
2023-03-24T10:47:36.883Z,15.76
2023-03-24T10:51:36.803Z,16.74
2023-03-24T10:55:37.163Z,15.68
2023-03-24T10:59:36.798Z,15.88
2023-03-24T11:03:37.092Z,17.51
2023-03-24T11:07:36.794Z,16.54
2023-03-24T11:11:37.683Z,16.17
2023-03-24T11:15:36.948Z,14.65
2023-03-24T11:19:38.976Z,16.15
2023-03-24T11:23:37.137Z,16.93
2023-03-24T11:27:37.572Z,15.57
2023-03-24T11:31:38.158Z,14.78
2023-03-24T11:35:42.048Z,15.77
2023-03-24T11:39:37.496Z,17.06
2023-03-24T11:43:37.577Z,16.66
2023-03-24T11:47:38.209Z,16.48
2023-03-24T11:51:37.422Z,16.00
2023-03-24T11:55:37.598Z,17.96
2023-03-24T11:59:38.166Z,16.49
2023-03-24T12:03:38.030Z,17.14
2023-03-24T12:07:38.124Z,16.49
2023-03-24T12:11:38.890Z,17.31
2023-03-24T12:15:38.834Z,17.55
2023-03-24T12:19:39.534Z,17.84
2023-03-24T12:23:38.322Z,19.20
2023-03-24T12:27:38.357Z,19.24
2023-03-24T12:31:38.619Z,19.19
2023-03-24T12:35:39.638Z,19.91
2023-03-24T12:39:38.585Z,17.71
2023-03-24T12:43:38.796Z,17.67
2023-03-24T12:47:38.950Z,15.54
